sensor_id;sensor_type;location;lat;lon;timestamp;P1;durP1;ratioP1;P2;durP2;ratioP2
21274;SDS011;36472;52.170;20.884;2022-08-16T00:00:20;14.80;;;13.32;;
21274;SDS011;36472;52.170;20.884;2022-08-16T00:03:05;14.88;;;13.38;;
21274;SDS011;36472;52.170;20.884;2022-08-16T00:05:41;14.00;;;12.55;;
21274;SDS011;36472;52.170;20.884;2022-08-16T00:08:14;14.95;;;13.35;;
21274;SDS011;36472;52.170;20.884;2022-08-16T00:11:04;14.23;;;12.75;;
21274;SDS011;36472;52.170;20.884;2022-08-16T00:13:41;17.15;;;14.75;;
21274;SDS011;36472;52.170;20.884;2022-08-16T00:16:21;15.32;;;13.50;;
21274;SDS011;36472;52.170;20.884;2022-08-16T00:19:11;15.10;;;13.13;;
21274;SDS011;36472;52.170;20.884;2022-08-16T00:21:41;16.92;;;14.20;;
21274;SDS011;36472;52.170;20.884;2022-08-16T00:24:19;15.30;;;13.40;;
21274;SDS011;36472;52.170;20.884;2022-08-16T00:27:00;15.68;;;14.02;;
21274;SDS011;36472;52.170;20.884;2022-08-16T00:29:30;14.00;;;12.60;;
21274;SDS011;36472;52.170;20.884;2022-08-16T00:32:00;17.52;;;14.85;;
21274;SDS011;36472;52.170;20.884;2022-08-16T00:34:33;16.17;;;14.50;;
21274;SDS011;36472;52.170;20.884;2022-08-16T00:37:18;15.98;;;14.35;;
21274;SDS011;36472;52.170;20.884;2022-08-16T00:39:51;16.42;;;14.75;;
21274;SDS011;36472;52.170;20.884;2022-08-16T00:42:27;17.23;;;14.77;;
21274;SDS011;36472;52.170;20.884;2022-08-16T00:44:59;16.20;;;14.52;;
21274;SDS011;36472;52.170;20.884;2022-08-16T00:47:36;16.55;;;14.82;;
21274;SDS011;36472;52.170;20.884;2022-08-16T00:50:16;17.20;;;15.48;;
21274;SDS011;36472;52.170;20.884;2022-08-16T00:53:02;17.55;;;15.52;;
21274;SDS011;36472;52.170;20.884;2022-08-16T00:55:32;16.83;;;15.02;;
21274;SDS011;36472;52.170;20.884;2022-08-16T00:58:07;16.60;;;14.95;;
21274;SDS011;36472;52.170;20.884;2022-08-16T01:00:42;17.33;;;15.52;;
21274;SDS011;36472;52.170;20.884;2022-08-16T01:03:21;18.70;;;15.35;;
21274;SDS011;36472;52.170;20.884;2022-08-16T01:05:56;17.60;;;15.25;;
21274;SDS011;36472;52.170;20.884;2022-08-16T01:08:47;17.40;;;15.60;;
21274;SDS011;36472;52.170;20.884;2022-08-16T01:11:20;18.27;;;16.30;;
21274;SDS011;36472;52.170;20.884;2022-08-16T01:13:54;18.27;;;16.33;;
21274;SDS011;36472;52.170;20.884;2022-08-16T01:16:29;18.15;;;16.33;;
21274;SDS011;36472;52.170;20.884;2022-08-16T01:19:00;17.08;;;15.32;;
21274;SDS011;36472;52.170;20.884;2022-08-16T01:21:37;17.10;;;15.07;;
21274;SDS011;36472;52.170;20.884;2022-08-16T01:24:24;18.63;;;15.50;;
21274;SDS011;36472;52.170;20.884;2022-08-16T01:27:19;18.45;;;15.88;;
21274;SDS011;36472;52.170;20.884;2022-08-16T01:29:56;17.08;;;15.32;;
21274;SDS011;36472;52.170;20.884;2022-08-16T01:32:47;16.92;;;15.15;;
21274;SDS011;36472;52.170;20.884;2022-08-16T01:35:31;18.10;;;16.15;;
21274;SDS011;36472;52.170;20.884;2022-08-16T01:38:16;16.90;;;15.10;;
21274;SDS011;36472;52.170;20.884;2022-08-16T01:40:54;18.55;;;16.23;;
21274;SDS011;36472;52.170;20.884;2022-08-16T01:43:30;15.65;;;14.05;;
21274;SDS011;36472;52.170;20.884;2022-08-16T01:46:02;15.93;;;14.43;;
21274;SDS011;36472;52.170;20.884;2022-08-16T01:48:58;17.98;;;16.05;;
21274;SDS011;36472;52.170;20.884;2022-08-16T01:51:33;17.65;;;15.13;;
21274;SDS011;36472;52.170;20.884;2022-08-16T01:54:07;16.95;;;15.30;;
21274;SDS011;36472;52.170;20.884;2022-08-16T01:56:49;16.02;;;14.48;;
21274;SDS011;36472;52.170;20.884;2022-08-16T01:59:20;14.55;;;13.05;;
21274;SDS011;36472;52.170;20.884;2022-08-16T02:01:49;14.80;;;12.90;;
21274;SDS011;36472;52.170;20.884;2022-08-16T02:04:28;16.23;;;13.73;;
21274;SDS011;36472;52.170;20.884;2022-08-16T02:07:19;15.00;;;13.50;;
21274;SDS011;36472;52.170;20.884;2022-08-16T02:09:50;15.63;;;14.00;;
21274;SDS011;36472;52.170;20.884;2022-08-16T02:12:25;16.63;;;14.05;;
21274;SDS011;36472;52.170;20.884;2022-08-16T02:15:17;16.42;;;14.43;;
21274;SDS011;36472;52.170;20.884;2022-08-16T02:17:51;15.57;;;13.45;;
21274;SDS011;36472;52.170;20.884;2022-08-16T02:20:20;19.50;;;15.35;;
21274;SDS011;36472;52.170;20.884;2022-08-16T02:22:53;15.02;;;13.55;;
21274;SDS011;36472;52.170;20.884;2022-08-16T02:25:23;14.52;;;13.02;;
21274;SDS011;36472;52.170;20.884;2022-08-16T02:28:15;15.35;;;13.75;;
21274;SDS011;36472;52.170;20.884;2022-08-16T02:30:45;15.43;;;13.82;;
21274;SDS011;36472;52.170;20.884;2022-08-16T02:33:18;14.15;;;12.82;;
21274;SDS011;36472;52.170;20.884;2022-08-16T02:36:11;15.75;;;14.15;;
21274;SDS011;36472;52.170;20.884;2022-08-16T02:39:02;15.80;;;14.20;;
21274;SDS011;36472;52.170;20.884;2022-08-16T02:41:33;15.38;;;13.75;;
21274;SDS011;36472;52.170;20.884;2022-08-16T02:44:08;16.42;;;14.63;;
21274;SDS011;36472;52.170;20.884;2022-08-16T02:46:45;16.50;;;14.80;;
21274;SDS011;36472;52.170;20.884;2022-08-16T02:49:18;16.10;;;14.50;;
21274;SDS011;36472;52.170;20.884;2022-08-16T02:51:48;15.88;;;14.27;;
21274;SDS011;36472;52.170;20.884;2022-08-16T02:54:17;16.30;;;14.57;;
21274;SDS011;36472;52.170;20.884;2022-08-16T02:56:50;16.75;;;14.32;;
21274;SDS011;36472;52.170;20.884;2022-08-16T02:59:20;15.68;;;14.02;;
21274;SDS011;36472;52.170;20.884;2022-08-16T03:01:50;18.80;;;14.93;;
21274;SDS011;36472;52.170;20.884;2022-08-16T03:04:26;15.80;;;14.20;;
21274;SDS011;36472;52.170;20.884;2022-08-16T03:07:15;16.02;;;14.43;;
21274;SDS011;36472;52.170;20.884;2022-08-16T03:09:54;15.63;;;14.00;;
21274;SDS011;36472;52.170;20.884;2022-08-16T03:12:27;16.02;;;14.43;;
21274;SDS011;36472;52.170;20.884;2022-08-16T03:15:06;17.27;;;15.48;;
21274;SDS011;36472;52.170;20.884;2022-08-16T03:17:38;16.42;;;14.73;;
21274;SDS011;36472;52.170;20.884;2022-08-16T03:20:21;16.40;;;14.65;;
21274;SDS011;36472;52.170;20.884;2022-08-16T03:23:00;15.82;;;14.23;;
21274;SDS011;36472;52.170;20.884;2022-08-16T03:25:29;15.65;;;14.13;;
21274;SDS011;36472;52.170;20.884;2022-08-16T03:28:12;15.82;;;13.70;;
21274;SDS011;36472;52.170;20.884;2022-08-16T03:30:46;16.42;;;14.65;;
21274;SDS011;36472;52.170;20.884;2022-08-16T03:33:16;16.20;;;14.50;;
21274;SDS011;36472;52.170;20.884;2022-08-16T03:35:52;16.13;;;14.40;;
21274;SDS011;36472;52.170;20.884;2022-08-16T03:38:46;15.15;;;13.65;;
21274;SDS011;36472;52.170;20.884;2022-08-16T03:41:16;15.30;;;13.50;;
21274;SDS011;36472;52.170;20.884;2022-08-16T03:43:56;14.82;;;13.32;;
21274;SDS011;36472;52.170;20.884;2022-08-16T03:46:29;17.05;;;14.43;;
21274;SDS011;36472;52.170;20.884;2022-08-16T03:49:19;14.82;;;13.38;;
21274;SDS011;36472;52.170;20.884;2022-08-16T03:51:50;14.98;;;13.38;;
21274;SDS011;36472;52.170;20.884;2022-08-16T03:54:24;16.25;;;13.93;;
21274;SDS011;36472;52.170;20.884;2022-08-16T03:56:55;15.43;;;13.80;;
21274;SDS011;36472;52.170;20.884;2022-08-16T03:59:28;15.15;;;12.88;;
21274;SDS011;36472;52.170;20.884;2022-08-16T04:02:05;16.27;;;13.52;;
21274;SDS011;36472;52.170;20.884;2022-08-16T04:04:49;14.80;;;13.40;;
21274;SDS011;36472;52.170;20.884;2022-08-16T04:07:21;15.15;;;13.20;;
21274;SDS011;36472;52.170;20.884;2022-08-16T04:09:51;15.27;;;13.73;;
21274;SDS011;36472;52.170;20.884;2022-08-16T04:12:19;16.20;;;14.15;;
21274;SDS011;36472;52.170;20.884;2022-08-16T04:15:09;14.93;;;13.55;;
21274;SDS011;36472;52.170;20.884;2022-08-16T04:17:54;15.48;;;13.88;;
21274;SDS011;36472;52.170;20.884;2022-08-16T04:20:24;16.42;;;13.77;;
21274;SDS011;36472;52.170;20.884;2022-08-16T04:23:03;14.90;;;13.48;;
21274;SDS011;36472;52.170;20.884;2022-08-16T04:25:36;13.88;;;12.57;;
21274;SDS011;36472;52.170;20.884;2022-08-16T04:28:08;14.65;;;13.15;;
21274;SDS011;36472;52.170;20.884;2022-08-16T04:30:57;14.98;;;12.55;;
21274;SDS011;36472;52.170;20.884;2022-08-16T04:33:29;15.38;;;13.23;;
21274;SDS011;36472;52.170;20.884;2022-08-16T04:36:01;13.55;;;12.30;;
21274;SDS011;36472;52.170;20.884;2022-08-16T04:38:32;13.43;;;12.02;;
21274;SDS011;36472;52.170;20.884;2022-08-16T04:41:01;14.20;;;12.80;;
21274;SDS011;36472;52.170;20.884;2022-08-16T04:43:32;14.55;;;13.15;;
21274;SDS011;36472;52.170;20.884;2022-08-16T04:46:11;15.57;;;12.95;;
21274;SDS011;36472;52.170;20.884;2022-08-16T04:49:03;15.55;;;13.05;;
21274;SDS011;36472;52.170;20.884;2022-08-16T04:51:33;15.13;;;13.55;;
21274;SDS011;36472;52.170;20.884;2022-08-16T04:54:05;14.90;;;13.40;;
21274;SDS011;36472;52.170;20.884;2022-08-16T04:56:35;14.20;;;12.80;;
21274;SDS011;36472;52.170;20.884;2022-08-16T04:59:12;15.68;;;14.13;;
21274;SDS011;36472;52.170;20.884;2022-08-16T05:01:43;14.85;;;12.80;;
21274;SDS011;36472;52.170;20.884;2022-08-16T05:04:27;16.40;;;13.88;;
21274;SDS011;36472;52.170;20.884;2022-08-16T05:06:59;15.75;;;14.00;;
21274;SDS011;36472;52.170;20.884;2022-08-16T05:09:46;15.77;;;14.00;;
21274;SDS011;36472;52.170;20.884;2022-08-16T05:12:16;14.90;;;13.40;;
21274;SDS011;36472;52.170;20.884;2022-08-16T05:14:58;15.98;;;14.07;;
21274;SDS011;36472;52.170;20.884;2022-08-16T05:17:33;16.52;;;13.93;;
21274;SDS011;36472;52.170;20.884;2022-08-16T05:20:09;15.35;;;13.80;;
21274;SDS011;36472;52.170;20.884;2022-08-16T05:22:59;15.77;;;14.18;;
21274;SDS011;36472;52.170;20.884;2022-08-16T05:25:29;15.60;;;14.10;;
21274;SDS011;36472;52.170;20.884;2022-08-16T05:28:14;15.55;;;13.95;;
21274;SDS011;36472;52.170;20.884;2022-08-16T05:30:50;17.20;;;15.48;;
21274;SDS011;36472;52.170;20.884;2022-08-16T05:33:22;15.02;;;13.43;;
21274;SDS011;36472;52.170;20.884;2022-08-16T05:35:56;15.40;;;13.82;;
21274;SDS011;36472;52.170;20.884;2022-08-16T05:38:31;15.32;;;13.73;;
21274;SDS011;36472;52.170;20.884;2022-08-16T05:41:09;14.27;;;12.88;;
21274;SDS011;36472;52.170;20.884;2022-08-16T05:43:42;15.13;;;13.52;;
21274;SDS011;36472;52.170;20.884;2022-08-16T05:46:20;14.82;;;13.38;;
21274;SDS011;36472;52.170;20.884;2022-08-16T05:49:12;14.82;;;13.18;;
21274;SDS011;36472;52.170;20.884;2022-08-16T05:51:53;14.90;;;13.40;;
21274;SDS011;36472;52.170;20.884;2022-08-16T05:54:24;15.93;;;13.70;;
21274;SDS011;36472;52.170;20.884;2022-08-16T05:56:57;15.13;;;13.40;;
21274;SDS011;36472;52.170;20.884;2022-08-16T05:59:27;15.65;;;13.55;;
21274;SDS011;36472;52.170;20.884;2022-08-16T06:01:56;14.85;;;13.45;;
21274;SDS011;36472;52.170;20.884;2022-08-16T06:04:31;14.93;;;13.32;;
21274;SDS011;36472;52.170;20.884;2022-08-16T06:07:12;16.77;;;13.52;;
21274;SDS011;36472;52.170;20.884;2022-08-16T06:10:15;15.40;;;12.57;;
21274;SDS011;36472;52.170;20.884;2022-08-16T06:13:02;13.90;;;12.50;;
21274;SDS011;36472;52.170;20.884;2022-08-16T06:15:32;14.63;;;13.13;;
21274;SDS011;36472;52.170;20.884;2022-08-16T06:18:03;14.73;;;13.23;;
21274;SDS011;36472;52.170;20.884;2022-08-16T06:20:33;13.75;;;12.27;;
21274;SDS011;36472;52.170;20.884;2022-08-16T06:23:17;14.00;;;12.60;;
21274;SDS011;36472;52.170;20.884;2022-08-16T06:26:03;14.25;;;12.73;;
21274;SDS011;36472;52.170;20.884;2022-08-16T06:28:38;14.98;;;12.75;;
21274;SDS011;36472;52.170;20.884;2022-08-16T06:31:13;14.05;;;12.68;;
21274;SDS011;36472;52.170;20.884;2022-08-16T06:33:46;13.45;;;12.15;;
21274;SDS011;36472;52.170;20.884;2022-08-16T06:36:19;14.30;;;12.90;;
21274;SDS011;36472;52.170;20.884;2022-08-16T06:39:09;13.88;;;12.57;;
21274;SDS011;36472;52.170;20.884;2022-08-16T06:41:50;14.32;;;12.82;;
21274;SDS011;36472;52.170;20.884;2022-08-16T06:44:51;13.27;;;11.88;;
21274;SDS011;36472;52.170;20.884;2022-08-16T06:47:34;13.88;;;12.35;;
21274;SDS011;36472;52.170;20.884;2022-08-16T06:50:20;14.80;;;13.18;;
21274;SDS011;36472;52.170;20.884;2022-08-16T06:52:56;14.50;;;13.07;;
21274;SDS011;36472;52.170;20.884;2022-08-16T06:55:35;18.92;;;13.07;;
21274;SDS011;36472;52.170;20.884;2022-08-16T06:58:08;13.55;;;12.20;;
21274;SDS011;36472;52.170;20.884;2022-08-16T07:00:56;14.15;;;12.65;;
21274;SDS011;36472;52.170;20.884;2022-08-16T07:04:00;13.55;;;12.25;;
21274;SDS011;36472;52.170;20.884;2022-08-16T07:06:39;14.20;;;12.65;;
21274;SDS011;36472;52.170;20.884;2022-08-16T07:09:10;14.52;;;12.32;;
21274;SDS011;36472;52.170;20.884;2022-08-16T07:11:46;13.68;;;12.10;;
21274;SDS011;36472;52.170;20.884;2022-08-16T07:14:29;13.07;;;11.15;;
21274;SDS011;36472;52.170;20.884;2022-08-16T07:16:59;14.75;;;12.80;;
21274;SDS011;36472;52.170;20.884;2022-08-16T07:19:34;13.32;;;11.95;;
21274;SDS011;36472;52.170;20.884;2022-08-16T07:22:29;13.18;;;11.77;;
21274;SDS011;36472;52.170;20.884;2022-08-16T07:25:22;14.07;;;11.95;;
21274;SDS011;36472;52.170;20.884;2022-08-16T07:27:53;14.35;;;12.85;;
21274;SDS011;36472;52.170;20.884;2022-08-16T07:30:27;14.07;;;12.50;;
21274;SDS011;36472;52.170;20.884;2022-08-16T07:33:38;14.23;;;12.73;;
21274;SDS011;36472;52.170;20.884;2022-08-16T07:36:21;13.30;;;11.90;;
21274;SDS011;36472;52.170;20.884;2022-08-16T07:38:51;13.55;;;12.13;;
21274;SDS011;36472;52.170;20.884;2022-08-16T07:41:21;11.65;;;10.45;;
21274;SDS011;36472;52.170;20.884;2022-08-16T07:43:58;14.40;;;11.82;;
21274;SDS011;36472;52.170;20.884;2022-08-16T07:46:29;11.15;;;10.05;;
21274;SDS011;36472;52.170;20.884;2022-08-16T07:49:15;13.93;;;11.25;;
21274;SDS011;36472;52.170;20.884;2022-08-16T07:51:44;12.93;;;11.57;;
21274;SDS011;36472;52.170;20.884;2022-08-16T07:54:14;12.88;;;10.75;;
21274;SDS011;36472;52.170;20.884;2022-08-16T07:56:52;12.80;;;10.43;;
21274;SDS011;36472;52.170;20.884;2022-08-16T07:59:24;13.30;;;10.32;;
21274;SDS011;36472;52.170;20.884;2022-08-16T08:02:13;10.85;;;9.85;;
21274;SDS011;36472;52.170;20.884;2022-08-16T08:04:47;12.70;;;10.55;;
21274;SDS011;36472;52.170;20.884;2022-08-16T08:07:16;13.13;;;11.77;;
21274;SDS011;36472;52.170;20.884;2022-08-16T08:09:50;12.15;;;11.05;;
21274;SDS011;36472;52.170;20.884;2022-08-16T08:12:20;12.68;;;11.32;;
21274;SDS011;36472;52.170;20.884;2022-08-16T08:15:04;12.85;;;11.05;;
21274;SDS011;36472;52.170;20.884;2022-08-16T08:17:40;12.75;;;11.43;;
21274;SDS011;36472;52.170;20.884;2022-08-16T08:20:15;12.45;;;11.30;;
21274;SDS011;36472;52.170;20.884;2022-08-16T08:22:56;12.50;;;11.07;;
21274;SDS011;36472;52.170;20.884;2022-08-16T08:25:47;13.93;;;11.77;;
21274;SDS011;36472;52.170;20.884;2022-08-16T08:28:25;12.23;;;11.10;;
21274;SDS011;36472;52.170;20.884;2022-08-16T08:31:02;12.88;;;10.65;;
21274;SDS011;36472;52.170;20.884;2022-08-16T08:33:35;12.40;;;11.10;;
21274;SDS011;36472;52.170;20.884;2022-08-16T08:36:09;13.93;;;10.35;;
21274;SDS011;36472;52.170;20.884;2022-08-16T08:38:50;10.38;;;9.38;;
21274;SDS011;36472;52.170;20.884;2022-08-16T08:41:21;13.95;;;10.80;;
21274;SDS011;36472;52.170;20.884;2022-08-16T08:43:57;11.50;;;10.52;;
21274;SDS011;36472;52.170;20.884;2022-08-16T08:46:27;12.00;;;10.27;;
21274;SDS011;36472;52.170;20.884;2022-08-16T08:49:03;10.45;;;8.63;;
21274;SDS011;36472;52.170;20.884;2022-08-16T08:51:39;10.60;;;8.77;;
21274;SDS011;36472;52.170;20.884;2022-08-16T08:54:10;10.25;;;9.13;;
21274;SDS011;36472;52.170;20.884;2022-08-16T08:56:49;10.10;;;8.93;;
21274;SDS011;36472;52.170;20.884;2022-08-16T08:59:27;10.30;;;8.43;;
21274;SDS011;36472;52.170;20.884;2022-08-16T09:01:58;13.65;;;8.52;;
21274;SDS011;36472;52.170;20.884;2022-08-16T09:04:38;12.82;;;9.38;;
21274;SDS011;36472;52.170;20.884;2022-08-16T09:07:07;9.88;;;8.85;;
21274;SDS011;36472;52.170;20.884;2022-08-16T09:09:38;19.77;;;10.05;;
21274;SDS011;36472;52.170;20.884;2022-08-16T09:12:12;12.25;;;9.80;;
21274;SDS011;36472;52.170;20.884;2022-08-16T09:15:09;10.93;;;9.30;;
21274;SDS011;36472;52.170;20.884;2022-08-16T09:17:45;14.05;;;9.00;;
21274;SDS011;36472;52.170;20.884;2022-08-16T09:20:26;17.23;;;10.10;;
21274;SDS011;36472;52.170;20.884;2022-08-16T09:22:56;9.68;;;8.10;;
21274;SDS011;36472;52.170;20.884;2022-08-16T09:25:33;9.50;;;7.63;;
21274;SDS011;36472;52.170;20.884;2022-08-16T09:28:06;9.48;;;8.50;;
21274;SDS011;36472;52.170;20.884;2022-08-16T09:30:54;9.65;;;8.43;;
21274;SDS011;36472;52.170;20.884;2022-08-16T09:33:24;16.52;;;9.45;;
21274;SDS011;36472;52.170;20.884;2022-08-16T09:36:03;16.45;;;9.27;;
21274;SDS011;36472;52.170;20.884;2022-08-16T09:38:53;14.77;;;9.25;;
21274;SDS011;36472;52.170;20.884;2022-08-16T09:41:25;20.63;;;10.85;;
21274;SDS011;36472;52.170;20.884;2022-08-16T09:43:54;10.32;;;8.88;;
21274;SDS011;36472;52.170;20.884;2022-08-16T09:46:28;10.82;;;8.70;;
21274;SDS011;36472;52.170;20.884;2022-08-16T09:49:13;12.30;;;9.00;;
21274;SDS011;36472;52.170;20.884;2022-08-16T09:51:45;13.73;;;9.10;;
21274;SDS011;36472;52.170;20.884;2022-08-16T09:54:22;12.35;;;8.45;;
21274;SDS011;36472;52.170;20.884;2022-08-16T09:56:58;10.68;;;8.93;;
21274;SDS011;36472;52.170;20.884;2022-08-16T09:59:29;10.30;;;9.35;;
21274;SDS011;36472;52.170;20.884;2022-08-16T10:02:04;17.20;;;10.85;;
21274;SDS011;36472;52.170;20.884;2022-08-16T10:04:55;18.67;;;10.52;;
21274;SDS011;36472;52.170;20.884;2022-08-16T10:07:29;15.05;;;10.75;;
21274;SDS011;36472;52.170;20.884;2022-08-16T10:10:11;10.88;;;9.60;;
21274;SDS011;36472;52.170;20.884;2022-08-16T10:12:56;10.02;;;9.02;;
21274;SDS011;36472;52.170;20.884;2022-08-16T10:15:43;14.63;;;9.77;;
21274;SDS011;36472;52.170;20.884;2022-08-16T10:18:21;10.07;;;8.82;;
21274;SDS011;36472;52.170;20.884;2022-08-16T10:21:14;10.88;;;9.73;;
21274;SDS011;36472;52.170;20.884;2022-08-16T10:23:48;12.65;;;10.18;;
21274;SDS011;36472;52.170;20.884;2022-08-16T10:26:20;11.32;;;9.23;;
21274;SDS011;36472;52.170;20.884;2022-08-16T10:29:11;11.57;;;10.10;;
21274;SDS011;36472;52.170;20.884;2022-08-16T10:31:46;12.00;;;10.73;;
21274;SDS011;36472;52.170;20.884;2022-08-16T10:34:19;12.38;;;11.07;;
21274;SDS011;36472;52.170;20.884;2022-08-16T10:37:00;12.82;;;11.50;;
21274;SDS011;36472;52.170;20.884;2022-08-16T10:39:29;13.05;;;10.75;;
21274;SDS011;36472;52.170;20.884;2022-08-16T10:42:08;11.98;;;10.77;;
21274;SDS011;36472;52.170;20.884;2022-08-16T10:44:39;12.20;;;10.70;;
21274;SDS011;36472;52.170;20.884;2022-08-16T10:47:19;12.27;;;10.98;;
21274;SDS011;36472;52.170;20.884;2022-08-16T10:49:49;11.85;;;10.65;;
21274;SDS011;36472;52.170;20.884;2022-08-16T10:52:19;17.08;;;10.82;;
21274;SDS011;36472;52.170;20.884;2022-08-16T10:54:50;19.55;;;11.38;;
21274;SDS011;36472;52.170;20.884;2022-08-16T10:57:38;18.15;;;11.25;;
21274;SDS011;36472;52.170;20.884;2022-08-16T11:00:10;19.27;;;11.82;;
21274;SDS011;36472;52.170;20.884;2022-08-16T11:02:48;22.90;;;10.95;;
21274;SDS011;36472;52.170;20.884;2022-08-16T11:05:27;10.98;;;9.82;;
21274;SDS011;36472;52.170;20.884;2022-08-16T11:08:19;15.57;;;11.15;;
21274;SDS011;36472;52.170;20.884;2022-08-16T11:11:01;11.73;;;10.57;;
21274;SDS011;36472;52.170;20.884;2022-08-16T11:13:40;12.63;;;10.30;;
21274;SDS011;36472;52.170;20.884;2022-08-16T11:16:31;11.70;;;9.75;;
21274;SDS011;36472;52.170;20.884;2022-08-16T11:19:20;13.00;;;10.05;;
21274;SDS011;36472;52.170;20.884;2022-08-16T11:21:49;11.98;;;10.63;;
21274;SDS011;36472;52.170;20.884;2022-08-16T11:24:40;15.35;;;11.35;;
21274;SDS011;36472;52.170;20.884;2022-08-16T11:27:12;15.73;;;12.05;;
21274;SDS011;36472;52.170;20.884;2022-08-16T11:29:46;12.68;;;10.73;;
21274;SDS011;36472;52.170;20.884;2022-08-16T11:32:19;12.95;;;10.48;;
21274;SDS011;36472;52.170;20.884;2022-08-16T11:34:59;13.38;;;11.20;;
21274;SDS011;36472;52.170;20.884;2022-08-16T11:37:42;12.05;;;10.77;;
21274;SDS011;36472;52.170;20.884;2022-08-16T11:40:36;12.10;;;10.95;;
21274;SDS011;36472;52.170;20.884;2022-08-16T11:43:20;12.25;;;10.07;;
21274;SDS011;36472;52.170;20.884;2022-08-16T11:45:52;10.55;;;9.57;;
21274;SDS011;36472;52.170;20.884;2022-08-16T11:48:23;14.20;;;9.40;;
21274;SDS011;36472;52.170;20.884;2022-08-16T11:50:53;12.88;;;10.45;;
21274;SDS011;36472;52.170;20.884;2022-08-16T11:53:24;10.82;;;9.73;;
21274;SDS011;36472;52.170;20.884;2022-08-16T11:56:03;12.88;;;10.38;;
21274;SDS011;36472;52.170;20.884;2022-08-16T11:58:35;13.65;;;11.30;;
21274;SDS011;36472;52.170;20.884;2022-08-16T12:01:07;13.23;;;10.63;;
21274;SDS011;36472;52.170;20.884;2022-08-16T12:03:36;12.52;;;11.15;;
21274;SDS011;36472;52.170;20.884;2022-08-16T12:06:08;12.80;;;10.55;;
21274;SDS011;36472;52.170;20.884;2022-08-16T12:08:57;15.88;;;11.60;;
21274;SDS011;36472;52.170;20.884;2022-08-16T12:11:29;13.07;;;10.90;;
21274;SDS011;36472;52.170;20.884;2022-08-16T12:13:59;14.95;;;11.02;;
21274;SDS011;36472;52.170;20.884;2022-08-16T12:16:30;11.35;;;10.25;;
21274;SDS011;36472;52.170;20.884;2022-08-16T12:19:01;12.65;;;11.32;;
21274;SDS011;36472;52.170;20.884;2022-08-16T12:21:31;11.52;;;10.25;;
21274;SDS011;36472;52.170;20.884;2022-08-16T12:24:21;12.27;;;10.32;;
21274;SDS011;36472;52.170;20.884;2022-08-16T12:26:51;11.55;;;10.45;;
21274;SDS011;36472;52.170;20.884;2022-08-16T12:29:20;11.25;;;10.07;;
21274;SDS011;36472;52.170;20.884;2022-08-16T12:31:55;12.30;;;11.07;;
21274;SDS011;36472;52.170;20.884;2022-08-16T12:34:27;12.93;;;11.07;;
21274;SDS011;36472;52.170;20.884;2022-08-16T12:36:57;12.63;;;10.82;;
21274;SDS011;36472;52.170;20.884;2022-08-16T12:39:28;12.07;;;10.88;;
21274;SDS011;36472;52.170;20.884;2022-08-16T12:41:59;11.45;;;10.18;;
21274;SDS011;36472;52.170;20.884;2022-08-16T12:44:29;11.48;;;9.27;;
21274;SDS011;36472;52.170;20.884;2022-08-16T12:46:57;10.43;;;9.38;;
21274;SDS011;36472;52.170;20.884;2022-08-16T12:49:44;9.95;;;8.57;;
21274;SDS011;36472;52.170;20.884;2022-08-16T12:52:15;12.55;;;8.95;;
21274;SDS011;36472;52.170;20.884;2022-08-16T12:55:00;10.80;;;8.48;;
21274;SDS011;36472;52.170;20.884;2022-08-16T12:57:35;10.32;;;8.82;;
21274;SDS011;36472;52.170;20.884;2022-08-16T13:00:07;9.48;;;8.57;;
21274;SDS011;36472;52.170;20.884;2022-08-16T13:02:52;10.57;;;9.35;;
21274;SDS011;36472;52.170;20.884;2022-08-16T13:05:21;10.00;;;8.95;;
21274;SDS011;36472;52.170;20.884;2022-08-16T13:07:51;10.35;;;8.88;;
21274;SDS011;36472;52.170;20.884;2022-08-16T13:10:26;10.32;;;9.23;;
21274;SDS011;36472;52.170;20.884;2022-08-16T13:13:06;16.23;;;10.07;;
21274;SDS011;36472;52.170;20.884;2022-08-16T13:15:36;13.27;;;9.95;;
21274;SDS011;36472;52.170;20.884;2022-08-16T13:18:23;10.68;;;9.48;;
21274;SDS011;36472;52.170;20.884;2022-08-16T13:21:01;14.27;;;10.50;;
21274;SDS011;36472;52.170;20.884;2022-08-16T13:23:31;17.65;;;12.73;;
21274;SDS011;36472;52.170;20.884;2022-08-16T13:26:02;12.77;;;11.38;;
21274;SDS011;36472;52.170;20.884;2022-08-16T13:28:34;13.07;;;10.90;;
21274;SDS011;36472;52.170;20.884;2022-08-16T13:31:04;13.82;;;12.18;;
21274;SDS011;36472;52.170;20.884;2022-08-16T13:33:33;13.50;;;11.55;;
21274;SDS011;36472;52.170;20.884;2022-08-16T13:36:04;15.32;;;11.45;;
21274;SDS011;36472;52.170;20.884;2022-08-16T13:38:52;12.50;;;11.32;;
21274;SDS011;36472;52.170;20.884;2022-08-16T13:41:23;13.70;;;12.40;;
21274;SDS011;36472;52.170;20.884;2022-08-16T13:43:57;14.90;;;12.02;;
21274;SDS011;36472;52.170;20.884;2022-08-16T13:46:35;14.82;;;12.02;;
21274;SDS011;36472;52.170;20.884;2022-08-16T13:49:04;16.77;;;12.52;;
21274;SDS011;36472;52.170;20.884;2022-08-16T13:51:33;14.43;;;12.15;;
21274;SDS011;36472;52.170;20.884;2022-08-16T13:54:04;17.25;;;11.73;;
21274;SDS011;36472;52.170;20.884;2022-08-16T13:56:35;12.55;;;11.27;;
21274;SDS011;36472;52.170;20.884;2022-08-16T13:59:08;13.00;;;11.80;;
21274;SDS011;36472;52.170;20.884;2022-08-16T14:01:47;13.43;;;9.27;;
21274;SDS011;36472;52.170;20.884;2022-08-16T14:04:20;10.82;;;8.65;;
21274;SDS011;36472;52.170;20.884;2022-08-16T14:06:53;10.52;;;8.63;;
21274;SDS011;36472;52.170;20.884;2022-08-16T14:09:24;10.50;;;8.57;;
21274;SDS011;36472;52.170;20.884;2022-08-16T14:11:55;9.30;;;8.27;;
21274;SDS011;36472;52.170;20.884;2022-08-16T14:14:28;10.80;;;9.07;;
21274;SDS011;36472;52.170;20.884;2022-08-16T14:16:58;9.80;;;7.60;;
21274;SDS011;36472;52.170;20.884;2022-08-16T14:19:28;7.78;;;6.57;;
21274;SDS011;36472;52.170;20.884;2022-08-16T14:21:59;8.38;;;6.53;;
21274;SDS011;36472;52.170;20.884;2022-08-16T14:24:49;7.45;;;5.95;;
21274;SDS011;36472;52.170;20.884;2022-08-16T14:27:24;7.65;;;5.95;;
21274;SDS011;36472;52.170;20.884;2022-08-16T14:29:58;8.63;;;5.70;;
21274;SDS011;36472;52.170;20.884;2022-08-16T14:32:28;8.80;;;6.13;;
21274;SDS011;36472;52.170;20.884;2022-08-16T14:35:00;11.95;;;6.50;;
21274;SDS011;36472;52.170;20.884;2022-08-16T14:37:33;10.68;;;5.90;;
21274;SDS011;36472;52.170;20.884;2022-08-16T14:40:03;7.03;;;5.72;;
21274;SDS011;36472;52.170;20.884;2022-08-16T14:42:33;7.57;;;5.30;;
21274;SDS011;36472;52.170;20.884;2022-08-16T14:45:04;7.65;;;5.63;;
21274;SDS011;36472;52.170;20.884;2022-08-16T14:47:35;6.93;;;5.78;;
21274;SDS011;36472;52.170;20.884;2022-08-16T14:50:05;7.78;;;5.80;;
21274;SDS011;36472;52.170;20.884;2022-08-16T14:52:40;5.88;;;5.13;;
21274;SDS011;36472;52.170;20.884;2022-08-16T14:55:22;6.57;;;5.10;;
21274;SDS011;36472;52.170;20.884;2022-08-16T14:57:53;7.03;;;5.07;;
21274;SDS011;36472;52.170;20.884;2022-08-16T15:00:24;6.72;;;4.80;;
21274;SDS011;36472;52.170;20.884;2022-08-16T15:03:03;7.40;;;6.03;;
21274;SDS011;36472;52.170;20.884;2022-08-16T15:05:37;8.38;;;5.18;;
21274;SDS011;36472;52.170;20.884;2022-08-16T15:08:07;6.45;;;5.10;;